createdAt,value
2023-01-19T00:00:05.465Z,990
2023-01-19T00:03:05.590Z,990
2023-01-19T00:06:05.570Z,990
2023-01-19T00:09:05.349Z,990
2023-01-19T00:12:05.596Z,990
2023-01-19T00:15:05.411Z,990
2023-01-19T00:18:05.371Z,990
2023-01-19T00:21:05.389Z,990
2023-01-19T00:24:05.445Z,989
2023-01-19T00:27:05.297Z,989
2023-01-19T00:30:05.441Z,989
2023-01-19T00:33:06.527Z,989
2023-01-19T00:36:05.420Z,989
2023-01-19T00:39:05.307Z,989
2023-01-19T00:42:05.359Z,989
2023-01-19T00:45:05.408Z,989
2023-01-19T00:48:05.405Z,989
2023-01-19T00:51:05.370Z,989
2023-01-19T00:54:05.485Z,989
2023-01-19T00:57:05.411Z,989
2023-01-19T01:00:05.432Z,989
2023-01-19T01:03:07.444Z,989
2023-01-19T01:06:05.318Z,989
2023-01-19T01:09:05.378Z,989
2023-01-19T01:12:05.966Z,989
2023-01-19T01:15:05.471Z,989
2023-01-19T01:18:05.430Z,989
2023-01-19T01:21:05.314Z,989
2023-01-19T01:24:05.393Z,989
2023-01-19T01:27:05.347Z,989
2023-01-19T01:30:05.504Z,989
2023-01-19T01:33:06.330Z,989
2023-01-19T01:36:05.352Z,989
2023-01-19T01:39:05.341Z,989
2023-01-19T01:42:05.388Z,989
2023-01-19T01:45:05.383Z,989
2023-01-19T01:48:05.356Z,989
2023-01-19T01:51:05.421Z,989
2023-01-19T01:54:05.399Z,989
2023-01-19T01:57:05.370Z,989
2023-01-19T02:00:05.395Z,989
2023-01-19T02:03:06.810Z,989
2023-01-19T02:06:05.462Z,989
2023-01-19T02:09:05.405Z,989
2023-01-19T02:12:05.332Z,989
2023-01-19T02:15:05.337Z,989
2023-01-19T02:18:05.325Z,989
2023-01-19T02:21:05.336Z,989
2023-01-19T02:24:05.390Z,989
2023-01-19T02:27:05.295Z,989
2023-01-19T02:30:05.353Z,989
2023-01-19T02:33:06.215Z,989
2023-01-19T02:36:05.345Z,989
2023-01-19T02:39:05.367Z,989
2023-01-19T02:42:05.348Z,989
2023-01-19T02:45:05.425Z,989
2023-01-19T02:48:05.344Z,989
2023-01-19T02:51:05.383Z,989
2023-01-19T02:54:05.338Z,989
2023-01-19T02:57:05.360Z,989
2023-01-19T03:00:05.385Z,989
2023-01-19T03:03:06.792Z,989
2023-01-19T03:06:05.354Z,990
2023-01-19T03:09:05.360Z,989
2023-01-19T03:12:05.411Z,989
2023-01-19T03:15:05.753Z,989
2023-01-19T03:18:05.389Z,989
2023-01-19T03:21:05.316Z,989
2023-01-19T03:24:05.423Z,989
2023-01-19T03:27:05.320Z,989
2023-01-19T03:30:05.411Z,989
2023-01-19T03:33:06.429Z,989
2023-01-19T03:36:05.380Z,989
2023-01-19T03:39:05.406Z,989
2023-01-19T03:42:05.407Z,989
2023-01-19T03:45:05.401Z,989
2023-01-19T03:48:05.390Z,989
2023-01-19T03:51:05.371Z,989
2023-01-19T03:54:05.420Z,989
2023-01-19T03:57:05.339Z,989
2023-01-19T04:00:05.552Z,990
2023-01-19T04:03:06.955Z,990
2023-01-19T04:06:05.413Z,990
2023-01-19T04:09:05.438Z,990
2023-01-19T04:12:05.355Z,990
2023-01-19T04:15:05.473Z,990
2023-01-19T04:18:05.348Z,990
2023-01-19T04:21:05.358Z,990
2023-01-19T04:24:05.396Z,990
2023-01-19T04:27:05.344Z,990
2023-01-19T04:30:05.407Z,990
2023-01-19T04:33:06.660Z,990
2023-01-19T04:36:05.383Z,990
2023-01-19T04:39:05.428Z,990
2023-01-19T04:42:05.362Z,990
2023-01-19T04:45:05.352Z,990
2023-01-19T04:48:05.403Z,990
2023-01-19T04:51:05.401Z,990
2023-01-19T04:54:05.513Z,990
2023-01-19T04:57:05.355Z,989
2023-01-19T05:00:05.434Z,989
2023-01-19T05:03:06.967Z,989
2023-01-19T05:06:05.375Z,989
2023-01-19T05:09:05.330Z,989
2023-01-19T05:12:05.381Z,989
2023-01-19T05:15:05.336Z,989
2023-01-19T05:18:05.322Z,989
2023-01-19T05:21:05.359Z,989
2023-01-19T05:24:05.362Z,989
2023-01-19T05:27:05.311Z,989
2023-01-19T05:30:05.348Z,989
2023-01-19T05:33:06.274Z,989
2023-01-19T05:36:05.356Z,989
2023-01-19T05:39:05.302Z,989
2023-01-19T05:42:05.367Z,989
2023-01-19T05:45:05.434Z,989
2023-01-19T05:48:05.479Z,989
2023-01-19T05:51:05.372Z,989
2023-01-19T05:54:05.435Z,989
2023-01-19T05:57:05.405Z,989
2023-01-19T06:00:05.416Z,989
2023-01-19T06:03:06.970Z,989
2023-01-19T06:06:05.379Z,989
2023-01-19T06:09:05.356Z,989
2023-01-19T06:12:05.342Z,989
2023-01-19T06:15:05.609Z,989
2023-01-19T06:18:05.373Z,989
2023-01-19T06:21:05.358Z,989
2023-01-19T06:24:05.332Z,989
2023-01-19T06:27:05.381Z,990
2023-01-19T06:30:05.531Z,990
2023-01-19T06:33:06.420Z,990
2023-01-19T06:36:05.468Z,990
2023-01-19T06:39:05.342Z,990
2023-01-19T06:42:05.421Z,990
2023-01-19T06:45:05.355Z,989
2023-01-19T06:48:05.552Z,989
2023-01-19T06:51:05.386Z,989
2023-01-19T06:54:05.392Z,989
2023-01-19T06:57:07.973Z,989
2023-01-19T07:00:05.655Z,989
2023-01-19T07:03:07.015Z,989
2023-01-19T07:06:05.336Z,989
2023-01-19T07:09:05.402Z,989
2023-01-19T07:12:05.375Z,989
2023-01-19T07:15:05.408Z,989
2023-01-19T07:18:05.380Z,989
2023-01-19T07:21:05.413Z,990
2023-01-19T07:24:05.456Z,990
2023-01-19T07:27:05.440Z,990
2023-01-19T07:30:05.516Z,990
2023-01-19T07:33:06.551Z,990
2023-01-19T07:36:05.396Z,990
2023-01-19T07:39:05.491Z,990
2023-01-19T07:42:06.151Z,990
2023-01-19T07:45:05.409Z,990
2023-01-19T07:48:05.484Z,990
2023-01-19T07:51:05.543Z,990
2023-01-19T07:54:05.336Z,990
2023-01-19T07:57:05.512Z,990
2023-01-19T08:00:05.657Z,990
2023-01-19T08:03:06.936Z,990
2023-01-19T08:06:05.507Z,990
2023-01-19T08:09:05.709Z,990
2023-01-19T08:12:05.409Z,990
2023-01-19T08:15:05.541Z,990
2023-01-19T08:18:05.452Z,990
2023-01-19T08:21:05.412Z,990
2023-01-19T08:24:05.632Z,990
2023-01-19T08:27:05.734Z,990
2023-01-19T08:30:05.974Z,990
2023-01-19T08:33:06.801Z,990
2023-01-19T08:36:05.375Z,990
2023-01-19T08:39:05.464Z,990
2023-01-19T08:42:05.550Z,990
2023-01-19T08:45:05.423Z,990
2023-01-19T08:48:05.429Z,990
2023-01-19T08:51:05.504Z,990
2023-01-19T08:54:05.384Z,990
2023-01-19T08:57:05.468Z,990
2023-01-19T09:00:05.565Z,990
2023-01-19T09:03:07.328Z,990
2023-01-19T09:06:05.516Z,990
2023-01-19T09:09:05.354Z,990
2023-01-19T09:12:05.513Z,990
2023-01-19T09:15:05.735Z,990
2023-01-19T09:18:06.407Z,990
2023-01-19T09:21:05.415Z,990
2023-01-19T09:24:05.408Z,990
2023-01-19T09:27:05.492Z,990
2023-01-19T09:30:05.498Z,990
2023-01-19T09:33:05.412Z,990
2023-01-19T09:36:05.376Z,990
2023-01-19T09:39:05.395Z,990
2023-01-19T09:42:05.447Z,990
2023-01-19T09:45:05.891Z,990
2023-01-19T09:48:06.473Z,990
2023-01-19T09:51:05.448Z,990
2023-01-19T09:54:05.540Z,990
2023-01-19T09:57:05.362Z,990
2023-01-19T10:00:05.558Z,990
2023-01-19T10:03:06.581Z,990
2023-01-19T10:06:05.439Z,990
2023-01-19T10:09:05.371Z,990
2023-01-19T10:12:05.460Z,990
2023-01-19T10:15:05.423Z,990
2023-01-19T10:18:06.526Z,990
2023-01-19T10:21:07.909Z,990
2023-01-19T10:24:07.991Z,990
2023-01-19T10:27:05.443Z,990
2023-01-19T10:30:05.663Z,990
2023-01-19T10:33:06.701Z,990
2023-01-19T10:36:05.562Z,990
2023-01-19T10:39:05.537Z,990
2023-01-19T10:42:05.574Z,990
2023-01-19T10:45:05.628Z,990
2023-01-19T10:48:05.616Z,990
2023-01-19T10:51:05.649Z,990
2023-01-19T10:54:05.587Z,990
2023-01-19T10:57:05.492Z,991
2023-01-19T11:00:05.573Z,991
2023-01-19T11:03:07.391Z,991
2023-01-19T11:06:05.404Z,990
2023-01-19T11:09:05.354Z,990
2023-01-19T11:12:05.361Z,990
2023-01-19T11:15:05.371Z,990
2023-01-19T11:18:05.481Z,990
2023-01-19T11:21:05.424Z,990
2023-01-19T11:24:05.495Z,990
2023-01-19T11:27:05.397Z,990
2023-01-19T11:30:05.569Z,990
2023-01-19T11:33:06.304Z,990
2023-01-19T11:36:05.344Z,990
2023-01-19T11:39:05.402Z,990
2023-01-19T11:42:05.464Z,990
2023-01-19T11:45:05.546Z,990
2023-01-19T11:48:06.640Z,990
2023-01-19T11:51:05.469Z,990
2023-01-19T11:54:05.360Z,990
2023-01-19T11:57:05.491Z,991
2023-01-19T12:00:05.391Z,991
2023-01-19T12:03:05.805Z,991
2023-01-19T12:06:05.405Z,991
2023-01-19T12:09:05.421Z,991
2023-01-19T12:12:05.473Z,991
2023-01-19T12:15:05.664Z,991
2023-01-19T12:18:06.672Z,991
2023-01-19T12:21:08.858Z,991
2023-01-19T12:24:05.626Z,991
2023-01-19T12:27:05.500Z,990
2023-01-19T12:30:05.648Z,990
2023-01-19T12:33:05.403Z,990
2023-01-19T12:36:05.673Z,990
2023-01-19T12:39:05.484Z,990
2023-01-19T12:42:05.372Z,990
2023-01-19T12:45:05.495Z,990
2023-01-19T12:48:05.530Z,991
2023-01-19T12:51:05.440Z,991
2023-01-19T12:54:06.261Z,991
2023-01-19T12:57:05.451Z,991
2023-01-19T13:00:05.725Z,991
2023-01-19T13:03:05.669Z,991
2023-01-19T13:06:05.399Z,991
2023-01-19T13:09:05.452Z,991
2023-01-19T13:12:05.873Z,991
2023-01-19T13:15:05.915Z,991
2023-01-19T13:18:05.421Z,991
2023-01-19T13:21:05.393Z,991
2023-01-19T13:24:05.524Z,991
2023-01-19T13:27:05.487Z,991
2023-01-19T13:30:06.657Z,991
2023-01-19T13:33:05.462Z,991
2023-01-19T13:36:05.504Z,991
2023-01-19T13:39:05.539Z,991
2023-01-19T13:42:05.430Z,991
2023-01-19T13:45:05.450Z,991
2023-01-19T13:48:05.501Z,991
2023-01-19T13:51:05.387Z,991
2023-01-19T13:54:05.511Z,991
2023-01-19T13:57:05.537Z,991
2023-01-19T14:00:06.329Z,991
2023-01-19T14:03:05.681Z,991
2023-01-19T14:06:05.652Z,991
2023-01-19T14:09:05.709Z,991
2023-01-19T14:12:05.485Z,991
2023-01-19T14:15:05.929Z,991
2023-01-19T14:18:05.724Z,991
2023-01-19T14:21:05.503Z,991
2023-01-19T14:24:05.447Z,992
2023-01-19T14:27:05.419Z,992
2023-01-19T14:30:05.447Z,992
2023-01-19T14:33:05.489Z,992
2023-01-19T14:36:05.418Z,992
2023-01-19T14:39:05.452Z,992
2023-01-19T14:42:05.632Z,992
2023-01-19T14:45:06.083Z,992
2023-01-19T14:48:05.478Z,992
2023-01-19T14:51:08.381Z,992
2023-01-19T14:54:05.409Z,992
2023-01-19T14:57:05.431Z,992
2023-01-19T15:00:05.668Z,992
2023-01-19T15:03:05.422Z,992
2023-01-19T15:06:08.698Z,992
2023-01-19T15:09:05.352Z,992
2023-01-19T15:12:05.412Z,992
2023-01-19T15:15:06.247Z,992
2023-01-19T15:18:05.583Z,992
2023-01-19T15:21:05.437Z,992
2023-01-19T15:24:05.521Z,992
2023-01-19T15:27:05.410Z,992
2023-01-19T15:30:05.565Z,992
2023-01-19T15:33:05.490Z,992
2023-01-19T15:36:05.486Z,992
2023-01-19T15:39:05.665Z,993
2023-01-19T15:42:05.363Z,993
2023-01-19T15:45:05.455Z,993
2023-01-19T15:48:05.406Z,993
2023-01-19T15:51:05.407Z,993
2023-01-19T15:54:05.400Z,993
2023-01-19T15:57:05.396Z,993
2023-01-19T16:00:05.475Z,993
2023-01-19T16:03:05.588Z,993
2023-01-19T16:06:05.345Z,993
2023-01-19T16:09:05.495Z,993
2023-01-19T16:12:05.370Z,993
2023-01-19T16:15:05.459Z,993
2023-01-19T16:18:05.384Z,993
2023-01-19T16:21:05.404Z,993
2023-01-19T16:24:05.396Z,993
2023-01-19T16:27:05.368Z,993
2023-01-19T16:30:05.512Z,993
2023-01-19T16:33:05.354Z,994
2023-01-19T16:36:05.352Z,994
2023-01-19T16:39:05.471Z,993
2023-01-19T16:42:05.639Z,993
2023-01-19T16:45:05.373Z,993
2023-01-19T16:48:05.403Z,993
2023-01-19T16:51:05.343Z,993
2023-01-19T16:54:05.519Z,993
2023-01-19T16:57:05.457Z,993
2023-01-19T17:00:05.594Z,993
2023-01-19T17:03:05.735Z,993
2023-01-19T17:06:05.380Z,993
2023-01-19T17:09:05.378Z,993
2023-01-19T17:12:05.463Z,993
2023-01-19T17:15:05.478Z,993
2023-01-19T17:18:05.422Z,993
2023-01-19T17:21:05.403Z,993
2023-01-19T17:24:05.496Z,993
2023-01-19T17:27:05.537Z,993
2023-01-19T17:30:05.591Z,994
2023-01-19T17:33:05.485Z,994
2023-01-19T17:36:05.361Z,994
2023-01-19T17:39:05.409Z,994
2023-01-19T17:42:05.387Z,994
2023-01-19T17:45:05.415Z,994
2023-01-19T17:48:05.382Z,994
2023-01-19T17:51:05.449Z,994
2023-01-19T17:54:05.399Z,994
2023-01-19T17:57:05.407Z,994
2023-01-19T18:00:05.624Z,994
2023-01-19T18:03:05.859Z,994
2023-01-19T18:06:05.538Z,994
2023-01-19T18:09:05.424Z,994
2023-01-19T18:12:05.375Z,994
2023-01-19T18:15:05.526Z,994
2023-01-19T18:18:05.407Z,994
2023-01-19T18:21:05.490Z,994
2023-01-19T18:24:05.602Z,994
2023-01-19T18:27:05.396Z,994
2023-01-19T18:30:06.817Z,994
2023-01-19T18:33:05.559Z,994
2023-01-19T18:36:05.582Z,994
2023-01-19T18:39:05.490Z,994
2023-01-19T18:42:05.372Z,994
2023-01-19T18:45:05.569Z,994
2023-01-19T18:48:05.827Z,994
2023-01-19T18:51:05.735Z,994
2023-01-19T18:54:05.487Z,994
2023-01-19T18:57:05.486Z,994
2023-01-19T19:00:05.588Z,994
2023-01-19T19:03:05.643Z,994
2023-01-19T19:06:05.835Z,994
2023-01-19T19:09:05.425Z,994
2023-01-19T19:12:05.496Z,995
2023-01-19T19:15:05.378Z,995
2023-01-19T19:18:05.392Z,994
2023-01-19T19:21:05.355Z,994
2023-01-19T19:24:05.415Z,994
2023-01-19T19:27:05.405Z,994
2023-01-19T19:30:05.483Z,994
2023-01-19T19:33:05.450Z,995
2023-01-19T19:36:05.434Z,995
2023-01-19T19:39:05.398Z,995
2023-01-19T19:42:05.393Z,995
2023-01-19T19:45:05.387Z,995
2023-01-19T19:48:05.393Z,995
2023-01-19T19:51:23.238Z,995
2023-01-19T19:54:05.371Z,995
2023-01-19T19:57:05.403Z,995
2023-01-19T20:00:05.416Z,995
2023-01-19T20:03:05.506Z,995
2023-01-19T20:06:05.404Z,995
2023-01-19T20:09:05.351Z,995
2023-01-19T20:12:05.401Z,995
2023-01-19T20:15:05.476Z,995
2023-01-19T20:18:05.430Z,995
2023-01-19T20:21:05.491Z,995
2023-01-19T20:24:05.480Z,995
2023-01-19T20:27:05.400Z,995
2023-01-19T20:30:05.440Z,995
2023-01-19T20:33:05.358Z,995
2023-01-19T20:36:05.411Z,995
2023-01-19T20:39:05.388Z,995
2023-01-19T20:42:05.407Z,995
2023-01-19T20:45:05.522Z,995
2023-01-19T20:48:05.419Z,995
2023-01-19T20:51:05.496Z,995
2023-01-19T20:54:05.399Z,995
2023-01-19T20:57:05.334Z,995
2023-01-19T21:00:05.520Z,995
2023-01-19T21:03:05.313Z,995
2023-01-19T21:06:05.480Z,995
2023-01-19T21:09:05.390Z,995
2023-01-19T21:12:05.390Z,995
2023-01-19T21:15:05.335Z,996
2023-01-19T21:18:05.492Z,996
2023-01-19T21:21:05.562Z,996
2023-01-19T21:24:05.489Z,996
2023-01-19T21:27:05.380Z,996
2023-01-19T21:30:05.508Z,996
2023-01-19T21:33:05.408Z,996
2023-01-19T21:36:05.386Z,996
2023-01-19T21:39:05.809Z,996
2023-01-19T21:42:05.361Z,996
2023-01-19T21:45:05.593Z,996
2023-01-19T21:48:05.363Z,996
2023-01-19T21:51:05.444Z,996
2023-01-19T21:54:05.394Z,996
2023-01-19T21:57:05.345Z,996
2023-01-19T22:00:05.561Z,996
2023-01-19T22:03:09.507Z,996
2023-01-19T22:06:05.376Z,997
2023-01-19T22:09:05.582Z,996
2023-01-19T22:12:05.357Z,996
2023-01-19T22:15:05.454Z,996
2023-01-19T22:18:05.382Z,996
2023-01-19T22:21:05.458Z,996
2023-01-19T22:24:05.469Z,996
2023-01-19T22:27:05.387Z,996
2023-01-19T22:30:05.473Z,996
2023-01-19T22:33:05.446Z,996
2023-01-19T22:36:05.458Z,996
2023-01-19T22:39:05.393Z,996
2023-01-19T22:42:05.367Z,996
2023-01-19T22:45:05.418Z,997
2023-01-19T22:48:05.441Z,997
2023-01-19T22:51:05.485Z,997
2023-01-19T22:54:05.559Z,997
2023-01-19T22:57:05.434Z,997
2023-01-19T23:00:06.217Z,997
2023-01-19T23:03:05.363Z,997
2023-01-19T23:06:05.451Z,997
2023-01-19T23:09:05.388Z,997
2023-01-19T23:12:05.339Z,997
2023-01-19T23:15:05.379Z,997
2023-01-19T23:18:05.389Z,997
2023-01-19T23:21:05.367Z,997
2023-01-19T23:24:05.429Z,997
2023-01-19T23:27:05.362Z,997
2023-01-19T23:30:05.660Z,997
2023-01-19T23:33:05.324Z,997
2023-01-19T23:36:05.372Z,997
2023-01-19T23:39:05.419Z,997
2023-01-19T23:42:05.363Z,997
2023-01-19T23:45:05.387Z,997
2023-01-19T23:48:05.520Z,997
2023-01-19T23:51:05.335Z,997
2023-01-19T23:54:05.463Z,997
2023-01-19T23:57:05.340Z,998
